KOGB

Orangeburg Municipal Airport

Orangeburg, South Carolina, USA
METAR KOGB 171753Z AUTO VRB03KT 10SM FEW100 BKN120 27/19 A3012 RMK AO2 SLP197 6//// T02670189 10272 20217 58016
Observed Flight Rules
Oct-17 @ 17:53 UTC (36 minutes ago) Visual Flight Rules
Wind Visibility Clouds
Variable at 3 knots 10 miles
  • Few at 10,000' AGL
  • Broken at 12,000' AGL
Temperatures Readings
Current 27°C / 81°F
Dewpoint 19°C / 66°F
Humidity 62%
Altimeter 30.12" Hg
Pressure 1019.7 hPa
Elevation 59
METAR KOGB 171753Z AUTO VRB03KT 10SM FEW100 BKN120 27/19 A3012 RMK AO2 SLP197 6//// T02670189 10272 20217 58016
Observed Flight Rules
Oct-17 @ 17:53 UTC
(36 minutes ago)
VFR
Wind Visibility
Variable at 3 knots 10 miles
Clouds
  • Few at 10,000' AGL
  • Broken at 12,000' AGL
Temperature Dewpoint
27°C / 81°F 19°C / 66°F
Humidity Altimeter Pressure
62% 30.12" Hg 1019.7 hPa